Barium Springs, North Carolina
Current Conditions -  °F | °C
As of 10:35 PM on Saturday 22 Nov 2014 (Local Time) from KSVH Reporting Station
Overcast Overcast  
Wind Chill: 38°   Ceiling: 4200
Heat Index: 38°   Visibility: 10mi
Dew Point: 27°   Wind: 0mph
Humidity: 66%   Direction: NA
Pressure: 30.31"   Gusts: NA
Location:  35.72°N, 80.9°W
Report Text: KSVH 230335Z AUTO 00000KT 10SM OVC042 03/M03 A3031 RMK AO2 T00311027
Loading
Personal Weather Stations






























Interactive Weather Map New forecast layout! Learn more

10-Day Weather Forecast

Advertisements
Track Severe Weather on mobile